Myrtle Beach International Airport Myrtle Beach US
ICAO: KMYR
IATA: MYR
Category: Large
Scheduled Services: Yes

Elevation: 25 ft
TransAlt. 18000 ft.

Airport Communications:
APP/DEP:119.2
ATIS:123.925
AWOS 3:124.5
CLNC DEL:119.7
CTAF:128.45
GND:120.3
TWR:128.45
UNICOM:122.95

KMYR Zoom In..

Runways:

(A) RW 18 length 9503 ft width 150 ft
ILS 109.50 / hdg 174

(B) RW 36 length 9503 ft width 150 ft
ILS 111.90 / hdg 354

Location; KMYR
Day. 21 / Time. 23.56 Zulu
* Altimeter: 30.35
* Temperature: 15° c. 59°f.
* Wind from: 100° Speed 08 kn.
Dewpoint: 08° c.
Visibility: 10 Statute Miles.
Clouds: Clear (automated report).

KMYR 212356Z 10008KT 10SM CLR 15/08 A3035 RMK AO2 SLP279 T01500078 10183 20150 53001


Wind From 100°
Speed 08 kn.

  YouTube Music Video
 
jpsmedia.com for Web Design  worldairports.se 2018   terms of use